createdAt,value
2023-07-02T00:02:22.292Z,23.16
2023-07-02T00:05:31.154Z,23.20
2023-07-02T00:08:39.770Z,23.19
2023-07-02T00:11:54.136Z,23.24
2023-07-02T00:15:10.182Z,23.22
2023-07-02T00:18:44.145Z,23.11
2023-07-02T00:21:52.945Z,23.16
2023-07-02T00:25:01.176Z,23.18
2023-07-02T00:28:16.165Z,23.16
2023-07-02T00:31:31.331Z,23.18
2023-07-02T00:34:40.192Z,23.17
2023-07-02T00:37:49.892Z,23.02
2023-07-02T00:41:05.156Z,22.98
2023-07-02T00:44:13.172Z,23.03
2023-07-02T00:47:21.748Z,23.07
2023-07-02T00:50:37.135Z,23.01
2023-07-02T00:53:47.085Z,23.00
2023-07-02T00:56:55.191Z,22.99
2023-07-02T01:00:10.162Z,23.00
2023-07-02T01:03:12.781Z,22.97
2023-07-02T01:06:31.154Z,22.90
2023-07-02T01:09:39.198Z,22.88
2023-07-02T01:12:56.186Z,22.85
2023-07-02T01:16:05.218Z,22.80
2023-07-02T01:19:21.197Z,22.77
2023-07-02T01:22:36.166Z,22.71
2023-07-02T01:25:44.837Z,22.69
2023-07-02T01:28:53.169Z,22.65
2023-07-02T01:32:01.855Z,22.69
2023-07-02T01:35:17.173Z,22.73
2023-07-02T01:38:25.196Z,22.76
2023-07-02T01:41:52.222Z,22.77
2023-07-02T01:45:00.805Z,22.74
2023-07-02T01:48:09.212Z,22.69
2023-07-02T01:51:31.206Z,22.65
2023-07-02T01:54:41.189Z,22.74
2023-07-02T01:57:49.800Z,22.71
2023-07-02T02:01:04.222Z,22.71
2023-07-02T02:04:06.194Z,22.71
2023-07-02T02:07:21.186Z,22.68
2023-07-02T02:10:36.192Z,22.70
2023-07-02T02:13:44.685Z,22.62
2023-07-02T02:16:59.248Z,22.64
2023-07-02T02:20:08.610Z,22.64
2023-07-02T02:23:17.203Z,22.69
2023-07-02T02:26:32.199Z,22.60
2023-07-02T02:29:40.758Z,22.45
2023-07-02T02:32:55.255Z,22.51
2023-07-02T02:36:04.044Z,22.50
2023-07-02T02:39:12.238Z,22.44
2023-07-02T02:42:20.683Z,22.40
2023-07-02T02:45:29.204Z,22.37
2023-07-02T02:48:44.215Z,22.40
2023-07-02T02:51:52.470Z,22.39
2023-07-02T02:55:07.215Z,22.35
2023-07-02T02:58:09.138Z,22.33
2023-07-02T03:01:24.214Z,22.20
2023-07-02T03:04:26.514Z,22.19
2023-07-02T03:07:41.198Z,22.15
2023-07-02T03:10:50.462Z,22.14
2023-07-02T03:14:05.199Z,22.15
2023-07-02T03:17:07.059Z,22.05
2023-07-02T03:20:22.188Z,22.09
2023-07-02T03:23:24.104Z,22.05
2023-07-02T03:26:39.201Z,22.03
2023-07-02T03:29:47.904Z,22.00
2023-07-02T03:32:56.244Z,22.02
2023-07-02T03:36:05.062Z,22.00
2023-07-02T03:39:20.221Z,21.99
2023-07-02T03:42:28.732Z,21.99
2023-07-02T03:45:43.246Z,22.07
2023-07-02T03:48:51.251Z,22.10
2023-07-02T03:52:07.033Z,22.15
2023-07-02T03:55:16.247Z,22.18
2023-07-02T03:58:24.856Z,22.21
2023-07-02T04:01:39.232Z,22.22
2023-07-02T04:04:47.879Z,22.20
2023-07-02T04:07:56.233Z,22.20
2023-07-02T04:11:11.228Z,22.27
2023-07-02T04:14:13.161Z,22.26
2023-07-02T04:17:28.241Z,22.26
2023-07-02T04:20:43.234Z,22.33
2023-07-02T04:23:51.734Z,22.43
2023-07-02T04:27:48.578Z,22.50
2023-07-02T04:30:29.032Z,22.56
2023-07-02T04:33:44.239Z,22.57
2023-07-02T04:36:53.932Z,22.56
2023-07-02T04:40:09.319Z,22.66
2023-07-02T04:43:17.796Z,22.69
2023-07-02T04:46:33.391Z,22.67
2023-07-02T04:49:55.212Z,22.74
2023-07-02T04:53:10.249Z,22.82
2023-07-02T04:56:18.810Z,22.80
2023-07-02T04:59:28.249Z,22.81
2023-07-02T05:02:43.259Z,22.87
2023-07-02T05:05:51.818Z,22.93
2023-07-02T05:09:06.248Z,22.84
2023-07-02T05:12:14.853Z,22.92
2023-07-02T05:15:23.246Z,22.99
2023-07-02T05:18:31.773Z,23.05
2023-07-02T05:21:46.237Z,23.00
2023-07-02T05:24:54.801Z,23.07
2023-07-02T05:28:09.263Z,23.17
2023-07-02T05:31:24.308Z,23.15
2023-07-02T05:34:32.959Z,23.24
2023-07-02T05:37:41.238Z,23.33
2023-07-02T05:40:56.237Z,23.41
2023-07-02T05:44:11.229Z,23.61
2023-07-02T05:47:27.443Z,23.76
2023-07-02T05:50:37.247Z,23.94
2023-07-02T05:53:45.801Z,24.09
2023-07-02T05:56:54.251Z,24.12
2023-07-02T06:00:08.954Z,24.08
2023-07-02T06:03:25.314Z,24.11
2023-07-02T06:06:27.472Z,24.30
2023-07-02T06:09:42.259Z,24.15
2023-07-02T06:12:50.826Z,24.14
2023-07-02T06:15:59.266Z,24.07
2023-07-02T06:19:14.280Z,24.04
2023-07-02T06:22:16.209Z,24.21
2023-07-02T06:25:31.298Z,24.45
2023-07-02T06:28:47.242Z,24.57
2023-07-02T06:31:49.178Z,24.80
2023-07-02T06:35:04.270Z,24.97
2023-07-02T06:38:06.114Z,24.54
2023-07-02T06:41:23.308Z,24.64
2023-07-02T06:44:31.286Z,24.75
2023-07-02T06:47:46.287Z,24.55
2023-07-02T06:50:55.319Z,24.57
2023-07-02T06:54:04.023Z,24.53
2023-07-02T06:57:12.300Z,24.63
2023-07-02T07:00:21.123Z,24.75
2023-07-02T07:03:36.360Z,24.91
2023-07-02T07:06:51.363Z,24.81
2023-07-02T07:09:59.807Z,24.81
2023-07-02T07:13:14.278Z,24.89
2023-07-02T07:16:16.118Z,24.85
2023-07-02T07:19:31.281Z,24.88
2023-07-02T07:22:39.809Z,24.84
2023-07-02T07:25:54.281Z,25.14
2023-07-02T07:29:09.308Z,25.65
2023-07-02T07:32:24.374Z,26.25
2023-07-02T07:35:39.300Z,26.47
2023-07-02T07:38:41.309Z,26.66
2023-07-02T07:41:56.289Z,26.76
2023-07-02T07:44:58.131Z,27.03
2023-07-02T07:48:13.288Z,27.11
2023-07-02T07:51:35.263Z,27.26
2023-07-02T07:54:50.290Z,27.32
2023-07-02T07:58:05.358Z,27.60
2023-07-02T08:01:13.826Z,27.94
2023-07-02T08:04:24.353Z,28.00
2023-07-02T08:07:39.299Z,27.97
2023-07-02T08:10:41.357Z,28.31
2023-07-02T08:13:56.355Z,28.38
2023-07-02T08:17:05.204Z,28.44
2023-07-02T08:20:14.389Z,28.39
2023-07-02T08:23:22.871Z,28.91
2023-07-02T08:26:37.323Z,28.24
2023-07-02T08:29:39.161Z,28.10
2023-07-02T08:32:54.366Z,28.24
2023-07-02T08:36:09.327Z,27.99
2023-07-02T08:39:18.312Z,28.62
2023-07-02T08:42:27.215Z,28.90
2023-07-02T08:45:43.322Z,28.79
2023-07-02T08:48:45.564Z,29.16
2023-07-02T08:52:00.303Z,29.20
2023-07-02T08:55:02.211Z,29.00
2023-07-02T08:58:18.324Z,28.38
2023-07-02T09:01:20.395Z,27.79
2023-07-02T09:04:35.339Z,27.76
2023-07-02T09:07:49.783Z,27.82
2023-07-02T09:11:13.331Z,27.81
2023-07-02T09:14:30.415Z,27.96
2023-07-02T09:17:45.376Z,27.56
2023-07-02T09:20:48.363Z,27.69
2023-07-02T09:24:03.312Z,27.97
2023-07-02T09:27:18.327Z,27.69
2023-07-02T09:30:26.318Z,27.69
2023-07-02T09:33:41.598Z,28.00
2023-07-02T09:36:50.028Z,28.40
2023-07-02T09:39:59.336Z,28.79
2023-07-02T09:43:08.000Z,29.02
2023-07-02T09:46:16.355Z,29.44
2023-07-02T09:49:33.342Z,29.20
2023-07-02T09:52:48.337Z,29.29
2023-07-02T09:56:03.333Z,29.60
2023-07-02T09:59:11.969Z,28.98
2023-07-02T10:02:26.426Z,29.38
2023-07-02T10:05:35.455Z,29.38
2023-07-02T10:09:03.361Z,29.74
2023-07-02T10:12:31.486Z,29.95
2023-07-02T10:15:40.122Z,30.20
2023-07-02T10:18:48.454Z,30.23
2023-07-02T10:22:04.912Z,29.99
2023-07-02T10:25:13.338Z,29.84
2023-07-02T10:28:28.352Z,29.63
2023-07-02T10:31:43.376Z,29.84
2023-07-02T10:34:58.359Z,30.32
2023-07-02T10:38:07.896Z,30.45
2023-07-02T10:41:35.353Z,30.42
2023-07-02T10:44:54.260Z,30.28
2023-07-02T10:48:16.359Z,30.77
2023-07-02T10:51:38.616Z,30.69
2023-07-02T10:54:48.070Z,30.70
2023-07-02T10:58:13.383Z,30.90
2023-07-02T11:01:29.974Z,30.62
2023-07-02T11:04:45.487Z,30.72
2023-07-02T11:07:47.522Z,30.08
2023-07-02T11:11:16.367Z,30.76
2023-07-02T11:14:41.365Z,31.02
2023-07-02T11:17:50.093Z,30.70
2023-07-02T11:21:05.767Z,30.23
2023-07-02T11:24:13.947Z,29.84
2023-07-02T11:27:29.377Z,30.30
2023-07-02T11:30:46.505Z,30.45
2023-07-02T11:33:55.363Z,30.34
2023-07-02T11:37:11.396Z,29.74
2023-07-02T11:40:20.129Z,29.75
2023-07-02T11:43:35.381Z,29.94
2023-07-02T11:46:50.384Z,30.29
2023-07-02T11:50:20.562Z,30.14
2023-07-02T11:53:40.634Z,30.11
2023-07-02T11:56:55.405Z,30.31
2023-07-02T11:59:57.395Z,29.97
2023-07-02T12:03:12.439Z,29.55
2023-07-02T12:06:21.084Z,30.28
2023-07-02T12:09:36.383Z,30.46
2023-07-02T12:12:52.400Z,29.62
2023-07-02T12:15:54.278Z,29.62
2023-07-02T12:19:09.457Z,29.45
2023-07-02T12:22:11.322Z,29.89
2023-07-02T12:25:29.506Z,29.45
2023-07-02T12:28:31.354Z,29.50
2023-07-02T12:31:46.392Z,29.97
2023-07-02T12:34:55.033Z,30.08
2023-07-02T12:38:03.399Z,30.15
2023-07-02T12:41:11.973Z,30.41
2023-07-02T12:44:20.427Z,30.94
2023-07-02T12:47:28.977Z,30.35
2023-07-02T12:50:45.403Z,30.47
2023-07-02T12:54:00.414Z,29.72
2023-07-02T12:57:08.973Z,30.15
2023-07-02T13:00:23.477Z,30.37
2023-07-02T13:03:32.537Z,29.83
2023-07-02T13:06:47.403Z,30.12
2023-07-02T13:09:56.178Z,29.99
2023-07-02T13:13:22.919Z,29.88
2023-07-02T13:16:32.498Z,29.05
2023-07-02T13:19:41.191Z,28.89
2023-07-02T13:22:49.420Z,29.12
2023-07-02T13:26:05.417Z,29.08
2023-07-02T13:29:14.982Z,28.95
2023-07-02T13:32:23.444Z,28.91
2023-07-02T13:35:32.197Z,28.72
2023-07-02T13:38:41.416Z,28.97
2023-07-02T13:41:51.442Z,29.67
2023-07-02T13:45:00.403Z,29.20
2023-07-02T13:48:15.453Z,29.08
2023-07-02T13:51:24.411Z,29.48
2023-07-02T13:54:39.900Z,28.97
2023-07-02T13:57:54.452Z,29.09
2023-07-02T14:00:56.689Z,29.67
2023-07-02T14:04:11.515Z,29.08
2023-07-02T14:07:20.186Z,29.40
2023-07-02T14:10:36.421Z,29.20
2023-07-02T14:13:45.225Z,28.71
2023-07-02T14:16:53.444Z,28.80
2023-07-02T14:20:03.264Z,28.83
2023-07-02T14:23:12.439Z,28.57
2023-07-02T14:26:21.160Z,28.46
2023-07-02T14:29:36.440Z,28.87
2023-07-02T14:32:45.255Z,28.87
2023-07-02T14:36:00.561Z,28.78
2023-07-02T14:39:34.470Z,28.57
2023-07-02T14:42:49.421Z,28.57
2023-07-02T14:46:07.451Z,28.68
2023-07-02T14:49:22.470Z,28.63
2023-07-02T14:52:37.478Z,28.69
2023-07-02T14:55:53.463Z,29.08
2023-07-02T14:59:01.485Z,29.16
2023-07-02T15:02:10.052Z,29.14
2023-07-02T15:05:18.613Z,28.52
2023-07-02T15:08:27.013Z,27.99
2023-07-02T15:11:41.562Z,28.08
2023-07-02T15:14:56.446Z,28.47
2023-07-02T15:18:05.138Z,28.67
2023-07-02T15:21:20.477Z,28.44
2023-07-02T15:24:29.106Z,28.27
2023-07-02T15:27:37.465Z,28.29
2023-07-02T15:30:46.017Z,28.03
2023-07-02T15:33:54.457Z,28.12
2023-07-02T15:37:09.464Z,28.36
2023-07-02T15:40:18.116Z,28.44
2023-07-02T15:43:26.527Z,28.60
2023-07-02T15:46:41.506Z,28.58
2023-07-02T15:49:49.561Z,28.46
2023-07-02T15:53:04.751Z,28.38
2023-07-02T15:56:19.477Z,28.33
2023-07-02T15:59:28.177Z,28.24
2023-07-02T16:02:36.602Z,28.38
2023-07-02T16:05:53.747Z,28.48
2023-07-02T16:08:58.499Z,28.45
2023-07-02T16:12:15.551Z,28.44
2023-07-02T16:15:17.552Z,28.29
2023-07-02T16:18:32.494Z,28.46
2023-07-02T16:21:47.503Z,28.34
2023-07-02T16:24:55.538Z,28.15
2023-07-02T16:28:04.165Z,28.12
2023-07-02T16:31:21.113Z,28.25
2023-07-02T16:34:24.736Z,28.23
2023-07-02T16:37:39.517Z,28.00
2023-07-02T16:40:48.706Z,28.02
2023-07-02T16:44:03.495Z,27.85
2023-07-02T16:47:12.253Z,27.91
2023-07-02T16:50:28.495Z,27.98
2023-07-02T16:53:50.493Z,27.79
2023-07-02T16:56:58.302Z,27.61
2023-07-02T17:00:15.558Z,27.53
2023-07-02T17:03:17.827Z,27.38
2023-07-02T17:06:32.497Z,27.43
2023-07-02T17:09:48.496Z,27.38
2023-07-02T17:13:03.510Z,27.30
2023-07-02T17:16:18.518Z,27.27
2023-07-02T17:19:29.891Z,27.15
2023-07-02T17:22:38.511Z,27.24
2023-07-02T17:25:47.651Z,27.03
2023-07-02T17:29:02.510Z,27.01
2023-07-02T17:32:11.572Z,26.99
2023-07-02T17:35:20.531Z,27.03
2023-07-02T17:38:29.509Z,26.92
2023-07-02T17:41:45.522Z,26.98
2023-07-02T17:44:54.498Z,26.87
2023-07-02T17:48:11.537Z,26.68
2023-07-02T17:51:20.303Z,26.62
2023-07-02T17:54:50.523Z,26.56
2023-07-02T17:58:05.508Z,26.45
2023-07-02T18:01:07.458Z,26.44
2023-07-02T18:04:23.649Z,26.37
2023-07-02T18:07:35.523Z,26.25
2023-07-02T18:10:57.430Z,26.26
2023-07-02T18:14:07.531Z,26.22
2023-07-02T18:17:23.554Z,26.12
2023-07-02T18:20:38.551Z,26.10
2023-07-02T18:23:53.502Z,25.94
2023-07-02T18:26:55.921Z,25.81
2023-07-02T18:30:11.554Z,25.77
2023-07-02T18:33:14.335Z,25.75
2023-07-02T18:36:30.517Z,25.69
2023-07-02T18:39:48.531Z,25.64
2023-07-02T18:42:51.601Z,25.59
2023-07-02T18:46:08.617Z,25.39
2023-07-02T18:49:18.526Z,25.35
2023-07-02T18:52:35.573Z,25.24
2023-07-02T18:56:11.546Z,25.23
2023-07-02T18:59:14.828Z,25.12
2023-07-02T19:02:33.410Z,25.07
2023-07-02T19:05:43.333Z,25.06
2023-07-02T19:08:59.560Z,24.94
2023-07-02T19:12:16.684Z,24.82
2023-07-02T19:15:25.435Z,24.78
2023-07-02T19:18:34.754Z,24.62
2023-07-02T19:21:43.328Z,24.64
2023-07-02T19:24:51.586Z,24.57
2023-07-02T19:28:07.619Z,24.54
2023-07-02T19:31:22.605Z,24.36
2023-07-02T19:34:31.536Z,24.32
2023-07-02T19:37:40.145Z,24.24
2023-07-02T19:41:04.560Z,24.29
2023-07-02T19:44:15.167Z,24.25
2023-07-02T19:47:30.603Z,24.20
2023-07-02T19:50:39.567Z,24.07
2023-07-02T19:53:54.573Z,24.19
2023-07-02T19:57:02.641Z,24.14
2023-07-02T20:00:12.041Z,24.11
2023-07-02T20:03:21.655Z,24.02
2023-07-02T20:06:32.124Z,24.00
2023-07-02T20:09:48.561Z,23.88
2023-07-02T20:12:50.661Z,23.92
2023-07-02T20:16:08.631Z,23.84
2023-07-02T20:19:20.196Z,23.80
2023-07-02T20:22:30.621Z,23.78
2023-07-02T20:25:50.101Z,23.72
2023-07-02T20:28:59.584Z,23.76
2023-07-02T20:32:08.642Z,23.74
2023-07-02T20:35:23.573Z,23.74
2023-07-02T20:38:32.583Z,23.69
2023-07-02T20:41:47.571Z,23.64
2023-07-02T20:45:02.572Z,23.63
2023-07-02T20:48:05.410Z,23.66
2023-07-02T20:51:20.608Z,23.62
2023-07-02T20:54:28.954Z,23.58
2023-07-02T20:57:43.574Z,23.55
2023-07-02T21:01:03.381Z,23.45
2023-07-02T21:04:11.723Z,23.42
2023-07-02T21:07:26.598Z,23.40
2023-07-02T21:10:28.447Z,23.41
2023-07-02T21:13:43.576Z,23.27
2023-07-02T21:16:51.673Z,23.16
2023-07-02T21:20:01.998Z,23.11
2023-07-02T21:23:16.587Z,23.14
2023-07-02T21:26:25.130Z,23.00
2023-07-02T21:29:39.576Z,23.07
2023-07-02T21:32:47.637Z,23.02
2023-07-02T21:36:10.595Z,22.91
2023-07-02T21:39:12.503Z,22.96
2023-07-02T21:42:27.610Z,22.96
2023-07-02T21:45:35.632Z,22.90
2023-07-02T21:48:44.116Z,22.90
2023-07-02T21:51:52.599Z,22.83
2023-07-02T21:55:14.612Z,22.84
2023-07-02T21:58:23.627Z,22.77
2023-07-02T22:01:38.706Z,22.71
2023-07-02T22:04:47.347Z,22.72
2023-07-02T22:08:02.594Z,22.69
2023-07-02T22:11:20.691Z,22.65
2023-07-02T22:14:36.600Z,22.64
2023-07-02T22:17:51.600Z,22.59
2023-07-02T22:20:59.608Z,22.53
2023-07-02T22:24:08.135Z,22.47
2023-07-02T22:27:22.604Z,22.47
2023-07-02T22:30:37.593Z,22.48
2023-07-02T22:33:45.637Z,22.44
2023-07-02T22:36:54.210Z,22.41
2023-07-02T22:40:02.634Z,22.46
2023-07-02T22:43:11.176Z,22.41
2023-07-02T22:46:19.687Z,22.33
2023-07-02T22:49:28.222Z,22.33
2023-07-02T22:52:42.635Z,22.36
2023-07-02T22:55:57.613Z,22.35
2023-07-02T22:59:06.239Z,22.32
2023-07-02T23:02:14.657Z,22.34
2023-07-02T23:05:29.706Z,22.22
2023-07-02T23:08:38.615Z,22.28
2023-07-02T23:11:48.176Z,22.25
2023-07-02T23:14:56.600Z,22.22
2023-07-02T23:18:11.600Z,22.19
2023-07-02T23:21:13.482Z,22.17
2023-07-02T23:24:28.632Z,22.17
2023-07-02T23:27:30.560Z,22.15
2023-07-02T23:30:45.618Z,22.14
2023-07-02T23:33:54.260Z,22.09
2023-07-02T23:37:08.618Z,22.12
2023-07-02T23:40:11.019Z,22.03
2023-07-02T23:43:25.603Z,21.98
2023-07-02T23:46:27.495Z,22.06
2023-07-02T23:49:42.638Z,22.04
2023-07-02T23:52:48.513Z,22.06
2023-07-02T23:56:03.641Z,22.04
2023-07-02T23:59:11.639Z,22.05
